Big Bear Station Historical Data
Daily Summary for February 10, 2019 Units:  English    Metric   Both
Next Day »
Daily Weekly Monthly Yearly Custom
  High: Low: Average:
Temperature: 34.3 °F 14.5 °F 23.9 °F
Dew Point: 29.7 °F 6.4 °F 20.5 °F
Humidity: 95% 68% 87%
Wind Speed: 11.9mph 0.0mph 2.4mph
Wind Gust: 18.6mph - -
Wind- - SW
Pressure: 23.35 in 23.25 in -
Precipitation: 0.00 in    
Historical Graphs
 
 
Tabular Data for February 10, 2019
Time Temperature Dew Point Pressure Wind Wind Speed Wind Gust Humidity Rainfall Rate (Hourly)
00:06 20.8 °F 19.1 °F 23.34 in Calm   -999.0 mph 93% 0.00 in
00:21 21.7 °F 20.0 °F 23.34 in NNW 5.8 mph -999.0 mph 93% 0.00 in
00:36 21.6 °F 18.9 °F 23.34 in NNW 1.1 mph -999.0 mph 89% 0.00 in
00:51 21.0 °F 17.5 °F 23.35 in Calm   -999.0 mph 86% 0.00 in
01:07 19.9 °F 15.8 °F 23.35 in Calm   -999.0 mph 84% 0.00 in
01:22 20.8 °F 15.9 °F 23.35 in Calm   -999.0 mph 81% 0.00 in
01:37 21.4 °F 16.2 °F 23.35 in Calm   -999.0 mph 80% 0.00 in
01:52 21.9 °F 14.9 °F 23.34 in Calm   -999.0 mph 74% 0.00 in
02:08 22.1 °F 14.5 °F 23.34 in WNW 4.2 mph -999.0 mph 72% 0.00 in
02:23 21.7 °F 14.1 °F 23.33 in Calm   -999.0 mph 72% 0.00 in
02:38 20.7 °F 14.0 °F 23.33 in Calm   -999.0 mph 75% 0.00 in
02:53 20.3 °F 13.0 °F 23.33 in Calm   -999.0 mph 73% 0.00 in
03:08 19.8 °F 13.2 °F 23.32 in Calm   -999.0 mph 75% 0.00 in
03:24 19.8 °F 13.8 °F 23.32 in Calm   -999.0 mph 77% 0.00 in
03:39 20.1 °F 12.8 °F 23.32 in Calm   -999.0 mph 73% 0.00 in
03:55 19.6 °F 13.3 °F 23.32 in Calm   -999.0 mph 76% 0.00 in
04:10 19.2 °F 12.9 °F 23.32 in Calm   -999.0 mph 76% 0.00 in
04:25 18.9 °F 12.9 °F 23.32 in South 2.2 mph -999.0 mph 77% 0.00 in
04:40 18.9 °F 13.5 °F 23.31 in Calm   -999.0 mph 79% 0.00 in
04:55 18.3 °F 13.4 °F 23.31 in Calm   -999.0 mph 81% 0.00 in
05:11 18.3 °F 14.0 °F 23.32 in Calm   -999.0 mph 83% 0.00 in
05:26 17.8 °F 14.9 °F 23.32 in Calm   -999.0 mph 88% 0.00 in
05:41 17.1 °F 14.2 °F 23.32 in Calm   -999.0 mph 88% 0.00 in
05:56 16.0 °F 13.3 °F 23.31 in Calm   -999.0 mph 89% 0.00 in
06:11 14.9 °F 12.2 °F 23.32 in SW 1.7 mph -999.0 mph 89% 0.00 in
06:27 14.5 °F 12.1 °F 23.32 in Calm   -999.0 mph 90% 0.00 in
06:42 15.6 °F 13.7 °F 23.32 in South 2.7 mph -999.0 mph 92% 0.00 in
06:57 15.6 °F 13.9 °F 23.32 in SSE 1.7 mph -999.0 mph 93% 0.00 in
07:12 15.4 °F 13.5 °F 23.32 in Calm   -999.0 mph 92% 0.00 in
07:27 16.3 °F 14.4 °F 23.32 in South 2.2 mph -999.0 mph 92% 0.00 in
07:43 17.2 °F 15.3 °F 23.32 in Calm   -999.0 mph 92% 0.00 in
07:58 18.3 °F 16.4 °F 23.32 in Calm   -999.0 mph 92% 0.00 in
08:13 20.5 °F 19.0 °F 23.32 in Calm   -999.0 mph 94% 0.00 in
08:28 22.5 °F 21.0 °F 23.32 in Calm   -999.0 mph 94% 0.00 in
08:44 25.0 °F 22.5 °F 23.31 in SSE 3.7 mph -999.0 mph 90% 0.00 in
08:59 27.5 °F 24.7 °F 23.31 in SSE 2.2 mph -999.0 mph 89% 0.00 in
09:14 28.6 °F 25.8 °F 23.31 in Calm   -999.0 mph 89% 0.00 in
09:29 29.5 °F 26.4 °F 23.32 in NW 2.7 mph -999.0 mph 88% 0.00 in
09:44 29.1 °F 25.7 °F 23.31 in NW 6.3 mph -999.0 mph 87% 0.00 in
10:00 29.5 °F 26.1 °F 23.30 in SSW 4.7 mph -999.0 mph 87% 0.00 in
10:15 30.9 °F 26.6 °F 23.31 in SW 6.8 mph -999.0 mph 84% 0.00 in
10:30 31.6 °F 27.3 °F 23.31 in SE 2.7 mph -999.0 mph 84% 0.00 in
10:45 33.1 °F 28.2 °F 23.31 in NW 5.8 mph -999.0 mph 82% 0.00 in
11:00 32.4 °F 28.4 °F 23.31 in NNW 4.2 mph -999.0 mph 85% 0.00 in
11:16 32.0 °F 27.7 °F 23.30 in South 1.7 mph -999.0 mph 84% 0.00 in
11:31 33.8 °F 29.2 °F 23.30 in SSE 3.7 mph -999.0 mph 83% 0.00 in
11:46 34.3 °F 29.7 °F 23.29 in NW 2.7 mph -999.0 mph 83% 0.00 in
12:02 32.9 °F 28.3 °F 23.29 in North 4.2 mph -999.0 mph 83% 0.00 in
12:17 33.3 °F 28.4 °F 23.28 in SSW 2.7 mph -999.0 mph 82% 0.00 in
12:32 33.4 °F 28.8 °F 23.28 in NNE 2.7 mph -999.0 mph 83% 0.00 in
12:47 32.9 °F 29.5 °F 23.28 in West 1.1 mph -999.0 mph 87% 0.00 in
13:03 32.2 °F 29.0 °F 23.27 in NE 3.7 mph -999.0 mph 88% 0.00 in
13:19 31.8 °F 27.8 °F 23.27 in South 7.3 mph -999.0 mph 85% 0.00 in
13:36 30.0 °F 26.9 °F 23.27 in WNW 4.2 mph -999.0 mph 88% 0.00 in
13:53 30.7 °F 27.3 °F 23.27 in Calm   -999.0 mph 87% 0.00 in
14:09 31.6 °F 28.2 °F 23.27 in Calm   -999.0 mph 87% 0.00 in
14:24 29.5 °F 26.4 °F 23.27 in South 11.9 mph -999.0 mph 88% 0.00 in
14:39 28.9 °F 26.6 °F 23.28 in ENE 8.3 mph -999.0 mph 91% 0.00 in
14:54 29.1 °F 26.8 °F 23.27 in SSE 6.8 mph -999.0 mph 91% 0.00 in
15:10 29.7 °F 27.4 °F 23.27 in WNW 3.7 mph -999.0 mph 91% 0.00 in
15:25 29.5 °F 27.2 °F 23.26 in WSW 1.7 mph -999.0 mph 91% 0.00 in
15:40 28.6 °F 26.6 °F 23.27 in ESE 2.7 mph -999.0 mph 92% 0.00 in
15:55 28.0 °F 26.0 °F 23.26 in South 4.7 mph -999.0 mph 92% 0.00 in
16:10 27.1 °F 25.3 °F 23.26 in WSW 2.7 mph -999.0 mph 93% 0.00 in
16:26 27.1 °F 25.3 °F 23.26 in WNW 5.8 mph -999.0 mph 93% 0.00 in
16:41 27.1 °F 25.6 °F 23.25 in SSE 4.2 mph -999.0 mph 94% 0.00 in
16:56 27.1 °F 25.6 °F 23.25 in SE 1.1 mph -999.0 mph 94% 0.00 in
17:12 26.8 °F 25.3 °F 23.25 in SE 2.7 mph -999.0 mph 94% 0.00 in
17:27 26.6 °F 25.4 °F 23.25 in SSE 4.2 mph -999.0 mph 95% 0.00 in
17:42 26.6 °F 25.4 °F 23.25 in South 3.2 mph -999.0 mph 95% 0.00 in
17:57 26.6 °F 25.4 °F 23.25 in SE 4.2 mph -999.0 mph 95% 0.00 in
18:12 26.6 °F 25.4 °F 23.25 in SE 5.8 mph -999.0 mph 95% 0.00 in
18:28 26.8 °F 25.6 °F 23.25 in NE 3.7 mph -999.0 mph 95% 0.00 in
18:43 27.0 °F 25.8 °F 23.25 in ESE 2.7 mph 18.6 mph 95% 0.00 in
18:58 26.4 °F 25.2 °F 23.25 in ESE 7.3 mph -999.0 mph 95% 0.00 in
19:13 26.1 °F 24.6 °F 23.26 in SSW 1.7 mph -999.0 mph 94% 0.00 in
19:28 26.1 °F 24.9 °F 23.26 in SE 4.2 mph -999.0 mph 95% 0.00 in
19:44 25.5 °F 23.8 °F 23.26 in NNW 2.2 mph -999.0 mph 93% 0.00 in
19:59 25.3 °F 23.8 °F 23.26 in North 2.7 mph -999.0 mph 94% 0.00 in
20:15 25.2 °F 23.5 °F 23.28 in WSW 4.2 mph -999.0 mph 93% 0.00 in
20:30 24.6 °F 22.9 °F 23.29 in NE 4.2 mph -999.0 mph 93% 0.00 in
20:45 22.8 °F 20.8 °F 23.30 in NW 5.3 mph -999.0 mph 92% 0.00 in
21:01 21.9 °F 19.7 °F 23.31 in SE 1.7 mph -999.0 mph 91% 0.00 in
21:16 21.2 °F 19.2 °F 23.31 in Calm   -999.0 mph 92% 0.00 in
21:31 19.8 °F 17.6 °F 23.32 in NNW 4.7 mph -999.0 mph 91% 0.00 in
21:46 18.7 °F 16.3 °F 23.34 in Calm   -999.0 mph 90% 0.00 in
22:01 18.1 °F 15.7 °F 23.33 in Calm   -999.0 mph 90% 0.00 in
22:17 16.9 °F 14.5 °F 23.35 in WNW 3.7 mph -999.0 mph 90% 0.00 in
22:32 16.0 °F 13.6 °F 23.34 in WNW 3.7 mph -999.0 mph 90% 0.00 in
22:47 15.3 °F 11.9 °F 23.34 in Calm   -999.0 mph 86% 0.00 in
23:02 14.7 °F 10.5 °F 23.34 in North 1.7 mph -999.0 mph 83% 0.00 in
23:18 14.5 °F 9.5 °F 23.34 in NNW 3.2 mph -999.0 mph 80% 0.00 in
23:33 14.9 °F 8.1 °F 23.34 in NNW 1.7 mph -999.0 mph 74% 0.00 in
23:48 15.1 °F 6.4 °F 23.34 in NNW 3.2 mph -999.0 mph 68% 0.00 in
Big Bear CA Weather